Time;durP1;ratioP1;P1;durP2;ratioP2;P2;SDS_P1;SDS_P2;PMS_P1;PMS_P2;Temp;Humidity;BMP_temperature;BMP_pressure;BME280_temperature;BME280_humidity;BME280_pressure;Samples;Min_cycle;Max_cycle;Signal;HPM_P1;HPM_P2
2022/06/26 00:01:57;;;;;;;13.82;9.32;;;;;;;17.23;100.00;101099.78;5030019;28;20033;-67
2022/06/26 00:04:22;;;;;;;17.02;9.82;;;;;;;17.25;100.00;101113.88;5029641;28;20025;-67
2022/06/26 00:06:48;;;;;;;14.73;8.35;;;;;;;17.22;100.00;101119.72;5029741;28;20036;-67
2022/06/26 00:09:13;;;;;;;18.13;9.07;;;;;;;17.19;100.00;101115.63;5029663;28;20104;-67
2022/06/26 00:11:39;;;;;;;15.77;9.63;;;;;;;17.17;100.00;101108.84;5029744;28;20029;-67
2022/06/26 00:14:04;;;;;;;15.68;9.48;;;;;;;17.14;100.00;101114.69;5029555;28;20527;-67
2022/06/26 00:16:29;;;;;;;15.85;9.55;;;;;;;17.15;100.00;101113.63;5029650;28;20045;-67
2022/06/26 00:18:56;;;;;;;17.17;10.25;;;;;;;17.13;100.00;101103.06;5029720;28;20973;-67
2022/06/26 00:21:22;;;;;;;15.57;9.00;;;;;;;17.11;100.00;101101.66;5029632;28;20037;-67
2022/06/26 00:23:47;;;;;;;17.35;11.00;;;;;;;17.13;100.00;101111.16;5029592;28;20033;-67
2022/06/26 00:26:12;;;;;;;17.48;9.70;;;;;;;17.14;100.00;101109.31;5029276;28;20051;-67
2022/06/26 00:28:38;;;;;;;21.00;10.20;;;;;;;17.13;100.00;101108.47;5012141;28;20389;-67
2022/06/26 00:31:03;;;;;;;16.60;9.77;;;;;;;17.12;100.00;101111.41;5029453;28;20068;-67
2022/06/26 00:33:29;;;;;;;19.35;10.82;;;;;;;17.07;100.00;101114.78;5029095;28;20088;-67
2022/06/26 00:35:54;;;;;;;16.60;10.23;;;;;;;17.02;100.00;101117.38;5029540;28;20128;-66
2022/06/26 00:38:19;;;;;;;19.20;9.95;;;;;;;16.98;100.00;101130.50;5029517;28;20064;-66
2022/06/26 00:40:45;;;;;;;16.17;9.85;;;;;;;16.93;100.00;101126.84;5029387;28;20029;-66
2022/06/26 00:43:10;;;;;;;16.60;9.20;;;;;;;16.92;100.00;101133.28;5029273;28;20029;-66
2022/06/26 00:45:36;;;;;;;15.32;9.23;;;;;;;16.91;100.00;101139.72;5028836;28;20033;-66
2022/06/26 00:48:02;;;;;;;16.05;10.50;;;;;;;16.90;100.00;101132.69;5029292;28;20389;-66
2022/06/26 00:50:27;;;;;;;14.00;9.25;;;;;;;16.89;100.00;101131.06;5028999;28;20025;-66
2022/06/26 00:52:56;;;;;;;19.25;8.95;;;;;;;16.89;100.00;101139.94;5029031;28;20515;-66
2022/06/26 00:55:22;;;;;;;15.27;9.10;;;;;;;16.88;100.00;101142.91;5029296;28;20516;-66
2022/06/26 00:57:48;;;;;;;17.58;10.18;;;;;;;16.89;100.00;101149.91;5029240;28;20026;-66
2022/06/26 01:00:14;;;;;;;17.30;10.30;;;;;;;16.88;100.00;101148.28;5029079;28;20396;-66
2022/06/26 01:02:40;;;;;;;18.15;10.30;;;;;;;16.89;100.00;101166.09;5028960;28;20176;-66
2022/06/26 01:05:07;;;;;;;15.55;9.40;;;;;;;16.88;100.00;101156.38;5029080;28;20040;-66
2022/06/26 01:07:33;;;;;;;16.08;10.00;;;;;;;16.89;100.00;101149.91;5028825;28;20033;-66
2022/06/26 01:09:58;;;;;;;14.90;10.05;;;;;;;16.91;100.00;101151.31;5028996;28;20030;-66
2022/06/26 01:12:24;;;;;;;14.38;9.40;;;;;;;16.91;100.00;101155.91;5029223;28;20033;-66
2022/06/26 01:14:51;;;;;;;15.70;10.40;;;;;;;16.90;100.00;101163.16;5028601;28;20036;-66
2022/06/26 01:17:16;;;;;;;16.40;10.27;;;;;;;16.90;100.00;101157.78;5028792;28;20061;-66
2022/06/26 01:19:43;;;;;;;16.75;10.18;;;;;;;16.93;100.00;101162.69;5029118;28;20030;-66
2022/06/26 01:22:08;;;;;;;16.00;9.57;;;;;;;16.93;100.00;101165.41;5028971;28;20065;-66
2022/06/26 01:24:34;;;;;;;16.95;9.88;;;;;;;16.91;100.00;101155.91;5029055;28;20392;-66
2022/06/26 01:27:00;;;;;;;15.07;9.30;;;;;;;16.95;100.00;101170.53;5028692;28;20022;-66
2022/06/26 01:29:26;;;;;;;14.70;9.27;;;;;;;16.97;100.00;101165.75;5028638;28;20037;-66
2022/06/26 01:31:51;;;;;;;18.63;11.63;;;;;;;16.96;100.00;101167.63;5028892;28;20046;-66
2022/06/26 01:34:16;;;;;;;17.05;10.30;;;;;;;16.98;100.00;101180.88;5028937;28;20579;-66
2022/06/26 01:36:42;;;;;;;17.83;10.18;;;;;;;16.99;100.00;101171.72;5028843;28;20037;-67
2022/06/26 01:39:07;;;;;;;17.52;10.52;;;;;;;16.99;100.00;101174.41;5028880;28;20112;-67
2022/06/26 01:41:32;;;;;;;18.65;11.27;;;;;;;16.99;100.00;101167.16;5028917;28;20072;-67
2022/06/26 01:43:58;;;;;;;19.42;11.10;;;;;;;16.97;100.00;101169.25;5028743;28;20147;-66
2022/06/26 01:46:25;;;;;;;17.42;10.95;;;;;;;16.93;100.00;101169.97;5028363;28;20064;-66
2022/06/26 01:48:51;;;;;;;18.27;10.68;;;;;;;16.93;100.00;101167.28;5028575;28;20033;-66
2022/06/26 01:51:17;;;;;;;17.77;11.73;;;;;;;16.91;100.00;101164.78;5028476;28;20061;-66
2022/06/26 01:53:43;;;;;;;18.58;12.05;;;;;;;16.93;100.00;101162.69;5028739;28;20069;-66
2022/06/26 01:56:08;;;;;;;21.48;11.77;;;;;;;16.90;100.00;101159.63;5029577;28;20029;-66
2022/06/26 01:58:34;;;;;;;18.73;10.35;;;;;;;16.92;100.00;101160.22;5032213;28;20543;-66
2022/06/26 02:01:01;;;;;;;15.35;9.27;;;;;;;16.89;100.00;101164.19;5032168;28;20129;-66
2022/06/26 02:03:27;;;;;;;18.05;10.25;;;;;;;16.88;100.00;101164.44;5032085;28;20384;-66
2022/06/26 02:05:53;;;;;;;19.58;10.52;;;;;;;16.89;100.00;101160.69;5032310;28;20369;-66
2022/06/26 02:08:19;;;;;;;20.25;11.38;;;;;;;16.83;100.00;101149.78;5032114;28;20033;-66
2022/06/26 02:13:39;;;;;;;19.60;12.35;;;;;;;16.79;100.00;101159.41;5032114;28;20064;-67
2022/06/26 02:16:28;;;;;;;18.17;11.82;;;;;;;16.79;100.00;101153.16;5031656;28;20033;-67
2022/06/26 02:18:56;;;;;;;21.55;12.48;;;;;;;16.71;100.00;101142.69;5030405;28;20034;-67
2022/06/26 02:21:27;;;;;;;20.38;12.88;;;;;;;16.66;100.00;101148.75;5031572;28;20025;-67
2022/06/26 02:23:53;;;;;;;18.98;11.13;;;;;;;16.60;100.00;101147.81;5031796;28;20049;-64
2022/06/26 02:26:20;;;;;;;21.33;12.68;;;;;;;16.58;100.00;101144.56;5031753;28;20026;-64
2022/06/26 02:28:46;;;;;;;21.33;12.40;;;;;;;16.55;100.00;101139.59;5031537;28;20610;-64
2022/06/26 02:31:13;;;;;;;21.83;13.90;;;;;;;16.52;100.00;101140.06;5031585;28;20431;-64
2022/06/26 02:33:38;;;;;;;20.20;11.50;;;;;;;16.51;100.00;101143.00;5031751;28;20120;-64
2022/06/26 02:36:06;;;;;;;21.25;12.85;;;;;;;16.48;100.00;101143.44;5031590;28;20362;-64
2022/06/26 02:38:33;;;;;;;19.90;12.18;;;;;;;16.46;100.00;101146.38;5031468;28;20529;-64
2022/06/26 02:40:58;;;;;;;20.88;12.52;;;;;;;16.46;100.00;101151.75;5031461;28;20083;-64
2022/06/26 02:43:23;;;;;;;20.48;11.70;;;;;;;16.44;100.00;101156.53;5031610;28;20037;-64
2022/06/26 02:45:50;;;;;;;23.00;13.32;;;;;;;16.43;100.00;101169.19;5031349;28;20065;-64
2022/06/26 02:48:16;;;;;;;20.83;12.77;;;;;;;16.42;100.00;101172.09;5031305;28;20028;-64
2022/06/26 02:50:41;;;;;;;21.48;14.38;;;;;;;16.42;100.00;101180.16;5031182;28;20514;-64
2022/06/26 02:53:09;;;;;;;20.25;12.85;;;;;;;16.41;100.00;101179.34;5031141;28;20195;-64
2022/06/26 02:55:35;;;;;;;21.52;12.88;;;;;;;16.41;100.00;101176.66;5031308;28;20068;-64
2022/06/26 02:58:00;;;;;;;21.38;13.25;;;;;;;16.41;100.00;101181.22;5031038;28;20049;-64
2022/06/26 03:00:26;;;;;;;25.50;13.98;;;;;;;16.38;100.00;101179.81;5031272;28;20057;-64
2022/06/26 03:02:51;;;;;;;21.77;12.40;;;;;;;16.40;100.00;101191.19;5031120;28;20053;-64
2022/06/26 03:05:17;;;;;;;23.42;13.90;;;;;;;16.40;100.00;101193.03;5031066;28;20041;-64
2022/06/26 03:07:43;;;;;;;24.35;13.63;;;;;;;16.39;100.00;101202.16;5030877;28;20025;-64
2022/06/26 03:10:08;;;;;;;20.90;13.48;;;;;;;16.40;100.00;101206.50;5030937;28;20029;-64
2022/06/26 03:12:34;;;;;;;21.02;13.27;;;;;;;16.40;100.00;101206.50;5030897;28;20029;-64
2022/06/26 03:15:00;;;;;;;24.58;14.00;;;;;;;16.38;100.00;101200.53;5030243;28;20106;-64
2022/06/26 03:17:26;;;;;;;22.23;13.55;;;;;;;16.32;100.00;101185.25;5030435;28;20124;-64
2022/06/26 03:19:51;;;;;;;22.15;12.55;;;;;;;16.37;100.00;101196.19;5030353;28;20195;-64
2022/06/26 03:22:17;;;;;;;20.98;12.40;;;;;;;16.33;100.00;101197.69;5030483;28;20108;-64
2022/06/26 03:24:42;;;;;;;20.88;12.70;;;;;;;16.31;100.00;101211.38;5030630;28;20033;-64
2022/06/26 03:27:08;;;;;;;21.73;12.77;;;;;;;16.27;100.00;101217.41;5030439;28;20036;-64
2022/06/26 03:29:33;;;;;;;24.23;12.70;;;;;;;16.24;100.00;101218.69;5030428;28;20029;-64
2022/06/26 03:31:59;;;;;;;20.70;11.88;;;;;;;16.19;100.00;101227.47;5029886;28;20461;-64
2022/06/26 03:34:24;;;;;;;19.42;9.82;;;;;;;16.15;100.00;101233.50;5030357;28;20033;-64
2022/06/26 03:36:50;;;;;;;17.85;9.40;;;;;;;16.06;100.00;101227.63;5030145;28;20029;-64
2022/06/26 03:39:16;;;;;;;14.38;8.52;;;;;;;15.98;100.00;101241.34;5030307;28;20037;-64
2022/06/26 03:41:41;;;;;;;14.93;8.18;;;;;;;15.88;99.25;101246.44;5028895;28;20091;-64
2022/06/26 03:44:06;;;;;;;17.65;8.25;;;;;;;15.82;99.30;101240.03;5030181;28;20033;-64
2022/06/26 03:46:33;;;;;;;14.30;7.53;;;;;;;15.75;99.36;101240.13;5030005;28;20045;-64
2022/06/26 03:48:59;;;;;;;16.23;8.93;;;;;;;15.75;99.66;101266.19;5029926;28;20116;-64
2022/06/26 03:51:25;;;;;;;13.70;7.72;;;;;;;15.73;99.95;101271.78;5028143;28;20495;-64
2022/06/26 03:53:50;;;;;;;16.77;7.47;;;;;;;15.72;100.00;101266.66;5030088;28;20124;-64
2022/06/26 03:56:15;;;;;;;19.02;9.63;;;;;;;15.68;100.00;101266.22;5029978;28;20432;-64
2022/06/26 03:58:41;;;;;;;15.68;7.82;;;;;;;15.70;100.00;101268.72;5030181;28;20042;-64
2022/06/26 04:01:06;;;;;;;17.23;9.25;;;;;;;15.67;100.00;101269.16;5028698;28;20033;-64
2022/06/26 04:03:31;;;;;;;19.55;9.45;;;;;;;15.69;100.00;101269.75;5029963;28;20037;-64
2022/06/26 04:05:57;;;;;;;15.95;8.32;;;;;;;15.69;100.00;101267.06;5029812;28;20026;-64
2022/06/26 04:08:22;;;;;;;15.55;7.65;;;;;;;15.70;100.00;101274.09;5029529;28;20030;-64
2022/06/26 04:10:48;;;;;;;17.85;7.95;;;;;;;15.71;100.00;101273.06;5029530;28;20448;-64
2022/06/26 04:13:14;;;;;;;18.77;8.48;;;;;;;15.71;100.00;101281.94;5029488;28;20108;-64
2022/06/26 04:15:40;;;;;;;19.77;9.10;;;;;;;15.70;100.00;101271.41;5029506;28;20033;-64
2022/06/26 04:18:07;;;;;;;16.98;9.02;;;;;;;15.68;100.00;101257.34;5029385;28;20037;-64
2022/06/26 04:20:32;;;;;;;15.07;7.72;;;;;;;15.71;100.00;101263.13;5029081;28;20029;-64
2022/06/26 04:23:00;;;;;;;18.00;7.75;;;;;;;15.73;100.00;101261.03;5029577;28;20037;-64
2022/06/26 04:25:27;;;;;;;16.70;8.20;;;;;;;15.72;99.74;101259.41;5029278;28;20047;-64
2022/06/26 04:27:53;;;;;;;17.00;8.10;;;;;;;15.69;99.96;101270.59;5029491;28;20366;-64
2022/06/26 04:30:18;;;;;;;17.30;7.43;;;;;;;15.72;99.94;101274.72;5029314;28;20067;-64
2022/06/26 04:32:43;;;;;;;20.05;8.75;;;;;;;15.76;99.68;101274.03;5029105;28;20353;-64
2022/06/26 04:35:09;;;;;;;14.90;7.25;;;;;;;15.78;99.50;101280.03;5027819;28;20060;-64
2022/06/26 04:37:36;;;;;;;15.20;8.15;;;;;;;15.82;99.29;101284.94;5029206;28;20469;-64
2022/06/26 04:40:03;;;;;;;16.55;8.18;;;;;;;15.81;99.44;101292.22;5029433;28;20518;-64
2022/06/26 04:42:28;;;;;;;19.00;8.45;;;;;;;15.85;99.11;101300.66;5029329;28;20515;-64
2022/06/26 04:44:53;;;;;;;17.20;8.00;;;;;;;15.90;99.13;101300.81;5029232;28;20037;-64
2022/06/26 04:47:19;;;;;;;17.48;7.28;;;;;;;15.97;98.53;101307.78;5029335;28;20094;-64
2022/06/26 04:49:44;;;;;;;15.48;7.60;;;;;;;16.02;98.01;101309.81;5029322;28;20091;-64
2022/06/26 04:52:09;;;;;;;13.55;6.53;;;;;;;15.98;97.82;101314.81;5028727;28;20057;-64
2022/06/26 04:54:35;;;;;;;14.27;6.80;;;;;;;15.93;97.98;101306.59;5028872;28;20030;-64
2022/06/26 04:57:00;;;;;;;12.32;6.32;;;;;;;15.95;97.90;101307.16;5029098;28;20417;-64
2022/06/26 04:59:25;;;;;;;13.50;6.60;;;;;;;15.97;97.78;101310.47;5029170;28;20047;-64
2022/06/26 05:01:51;;;;;;;14.13;6.85;;;;;;;15.98;97.77;101317.50;5029109;28;20034;-64
2022/06/26 05:04:16;;;;;;;12.85;7.28;;;;;;;15.94;98.42;101310.09;5028941;28;20073;-64
2022/06/26 05:06:42;;;;;;;15.65;7.50;;;;;;;15.98;98.39;101324.75;5029097;28;20473;-64
2022/06/26 05:09:07;;;;;;;13.90;6.65;;;;;;;16.06;98.03;101320.94;5029171;28;20029;-64
2022/06/26 05:11:32;;;;;;;13.10;6.35;;;;;;;16.16;97.80;101332.84;5028972;28;20029;-64
2022/06/26 05:13:58;;;;;;;16.23;6.32;;;;;;;16.24;97.27;101323.66;5028848;28;20120;-64
2022/06/26 05:16:23;;;;;;;14.70;6.35;;;;;;;16.27;97.15;101323.25;5028786;28;20087;-64
2022/06/26 05:18:48;;;;;;;12.55;6.68;;;;;;;16.29;96.14;101325.69;5028851;28;20083;-64
2022/06/26 05:21:14;;;;;;;15.30;7.13;;;;;;;16.30;96.16;101325.47;5028719;28;20071;-64
2022/06/26 05:23:39;;;;;;;12.07;6.88;;;;;;;16.33;96.43;101325.03;5029135;28;20373;-64
2022/06/26 05:26:05;;;;;;;11.68;6.22;;;;;;;16.32;95.59;101322.53;5028995;28;20029;-64
2022/06/26 05:28:30;;;;;;;12.05;6.00;;;;;;;16.28;95.75;101324.06;5028898;28;20172;-64
2022/06/26 05:30:56;;;;;;;18.85;7.63;;;;;;;16.27;95.34;101322.41;5029593;28;20025;-64
2022/06/26 05:33:21;;;;;;;13.50;6.00;;;;;;;16.28;95.35;101321.38;5032616;28;20029;-65
2022/06/26 05:35:47;;;;;;;11.38;5.15;;;;;;;16.28;94.99;101321.38;5032088;28;20485;-64
2022/06/26 05:38:12;;;;;;;12.65;6.40;;;;;;;16.27;95.00;101323.25;5032462;28;20037;-64
2022/06/26 05:40:37;;;;;;;12.35;5.20;;;;;;;16.31;95.49;101324.44;5032385;28;20033;-64
2022/06/26 05:43:03;;;;;;;11.68;5.97;;;;;;;16.33;94.67;101319.66;5032454;28;20041;-64
2022/06/26 05:45:28;;;;;;;13.85;5.50;;;;;;;16.35;94.68;101327.50;5032276;28;20048;-64
2022/06/26 05:47:54;;;;;;;10.73;5.90;;;;;;;16.40;95.64;101336.56;5032520;28;20048;-64
2022/06/26 05:50:21;;;;;;;14.52;5.78;;;;;;;16.53;93.96;101348.22;5032247;28;20406;-64
2022/06/26 05:52:47;;;;;;;11.32;6.50;;;;;;;16.62;93.40;101353.09;5032113;28;20111;-65
2022/06/26 05:55:12;;;;;;;13.63;5.63;;;;;;;16.65;93.12;101344.56;5031865;28;20038;-64
2022/06/26 05:57:37;;;;;;;12.60;5.18;;;;;;;16.71;92.52;101350.91;5032040;28;20033;-64
2022/06/26 06:00:05;;;;;;;12.77;5.93;;;;;;;16.77;91.46;101368.91;5032102;28;20571;-64
2022/06/26 06:02:30;;;;;;;12.27;5.63;;;;;;;16.96;92.08;101377.81;5032010;28;20064;-64
2022/06/26 06:04:56;;;;;;;11.85;5.25;;;;;;;17.05;91.41;101386.38;5032083;28;20064;-64
2022/06/26 06:07:21;;;;;;;10.57;5.35;;;;;;;17.05;90.02;101395.28;5032492;28;20030;-64
2022/06/26 06:09:46;;;;;;;13.45;5.90;;;;;;;17.07;91.15;101393.19;5031983;28;20148;-64
2022/06/26 06:12:12;;;;;;;11.68;5.60;;;;;;;17.01;89.74;101377.94;5031670;28;20068;-64
2022/06/26 06:14:37;;;;;;;14.38;5.35;;;;;;;17.05;90.27;101386.38;5031721;28;20487;-64
2022/06/26 06:17:35;;;;;;;15.68;6.50;;;;;;;17.03;89.65;101389.31;5031918;28;20120;-64
2022/06/26 06:19:48;;;;;;;12.40;5.47;;;;;;;17.04;88.61;101398.22;5031718;28;20038;-64
2022/06/26 06:22:13;;;;;;;10.95;4.97;;;;;;;17.01;89.09;101391.41;5031777;28;20112;-64
2022/06/26 06:24:39;;;;;;;13.15;5.72;;;;;;;17.05;89.44;101392.59;5031783;28;20143;-64
2022/06/26 06:27:04;;;;;;;15.70;6.18;;;;;;;17.08;89.20;101384.09;5031597;28;20037;-64
2022/06/26 06:29:30;;;;;;;10.50;5.15;;;;;;;17.18;89.50;101385.41;5031575;28;20147;-64
2022/06/26 06:31:56;;;;;;;11.88;5.22;;;;;;;17.26;88.04;101393.97;5031293;28;20029;-65
2022/06/26 06:34:21;;;;;;;9.25;4.57;;;;;;;17.29;87.07;101388.16;5031773;28;20104;-64
2022/06/26 06:36:46;;;;;;;12.75;5.07;;;;;;;17.36;89.36;101388.06;5031279;28;20386;-65
2022/06/26 06:39:12;;;;;;;9.30;5.05;;;;;;;17.42;87.36;101380.91;5031349;28;20408;-64
2022/06/26 06:41:37;;;;;;;16.00;7.10;;;;;;;17.52;87.54;101376.63;5030970;28;20030;-64
2022/06/26 06:44:02;;;;;;;11.48;5.80;;;;;;;17.60;87.71;101385.44;5031261;28;20037;-65
2022/06/26 06:46:28;;;;;;;10.43;4.72;;;;;;;17.65;85.47;101394.47;5031564;28;20103;-65
2022/06/26 06:48:53;;;;;;;10.25;4.72;;;;;;;17.76;86.20;101400.97;5030920;28;20052;-64
2022/06/26 06:51:18;;;;;;;13.40;6.75;;;;;;;17.87;86.59;101405.63;5031108;28;20139;-64
2022/06/26 06:53:45;;;;;;;9.85;4.38;;;;;;;17.98;84.54;101406.69;5031287;28;20067;-65
2022/06/26 06:56:10;;;;;;;9.48;3.75;;;;;;;17.98;83.11;101401.28;5031015;28;20112;-64
2022/06/26 06:58:36;;;;;;;12.57;5.28;;;;;;;17.99;86.29;101410.19;5031023;28;20029;-64
2022/06/26 07:01:01;;;;;;;11.93;5.18;;;;;;;17.98;86.18;101427.47;5031070;28;20045;-64
2022/06/26 07:03:27;;;;;;;10.85;4.97;;;;;;;18.02;86.66;101426.75;5030266;28;20115;-64
2022/06/26 07:05:52;;;;;;;10.60;4.40;;;;;;;18.10;84.92;101437.22;5030157;28;20376;-64
2022/06/26 07:08:17;;;;;;;11.70;4.05;;;;;;;18.13;83.44;101436.75;5030710;28;20060;-64
2022/06/26 07:10:43;;;;;;;11.73;5.13;;;;;;;18.20;83.65;101449.31;5030785;28;20087;-65
2022/06/26 07:13:10;;;;;;;14.90;5.93;;;;;;;18.19;82.95;101456.59;5030726;28;20037;-64
2022/06/26 07:15:36;;;;;;;13.25;5.35;;;;;;;18.24;83.21;101462.13;5030770;28;20140;-65
2022/06/26 07:18:01;;;;;;;12.48;6.10;;;;;;;18.18;82.40;101465.75;5030627;28;20112;-65
2022/06/26 07:20:26;;;;;;;14.10;7.05;;;;;;;18.09;82.28;101472.53;5030716;28;20052;-65
2022/06/26 07:22:52;;;;;;;14.43;7.03;;;;;;;18.06;82.57;101467.63;5029169;28;20034;-65
2022/06/26 07:25:17;;;;;;;11.00;4.32;;;;;;;18.09;83.46;101472.53;5030546;28;20089;-65
2022/06/26 07:27:44;;;;;;;14.07;5.75;;;;;;;18.17;83.12;101474.91;5030509;28;20032;-65
2022/06/26 07:30:10;;;;;;;9.93;4.00;;;;;;;18.24;84.62;101470.22;5030426;28;20026;-64
2022/06/26 07:32:35;;;;;;;12.35;5.57;;;;;;;18.33;83.20;101463.41;5030454;28;20029;-65
2022/06/26 07:35:01;;;;;;;13.48;5.55;;;;;;;18.39;81.86;101448.16;5030397;28;20036;-65
2022/06/26 07:37:26;;;;;;;9.07;4.80;;;;;;;18.46;82.52;101448.88;5030526;28;20037;-65
2022/06/26 07:39:51;;;;;;;7.70;4.60;;;;;;;18.46;80.47;101459.66;5030112;28;20033;-65
2022/06/26 07:42:17;;;;;;;11.02;5.13;;;;;;;18.46;81.73;101456.16;5029567;28;20032;-65
2022/06/26 07:44:42;;;;;;;8.07;4.80;;;;;;;18.45;81.21;101466.16;5030164;28;20033;-65
2022/06/26 07:47:08;;;;;;;10.82;4.45;;;;;;;18.46;81.64;101475.88;5030014;28;20036;-65
2022/06/26 07:49:33;;;;;;;8.68;4.32;;;;;;;18.44;81.47;101477.16;5030055;28;20026;-65
2022/06/26 07:51:58;;;;;;;10.35;4.32;;;;;;;18.37;80.49;101474.59;5028817;28;20045;-65
2022/06/26 07:54:24;;;;;;;11.32;5.38;;;;;;;18.40;80.70;101469.53;5029445;28;20021;-65
2022/06/26 07:56:50;;;;;;;5.72;3.65;;;;;;;18.46;81.64;101461.56;5029849;28;20034;-65
2022/06/26 07:59:15;;;;;;;7.68;3.75;;;;;;;18.54;80.70;101466.59;5029611;28;20032;-65
2022/06/26 08:01:41;;;;;;;6.63;4.32;;;;;;;18.55;79.44;101474.50;5029864;28;20029;-65
2022/06/26 08:04:09;;;;;;;9.75;4.57;;;;;;;18.50;79.30;101478.97;5029846;28;20041;-65
2022/06/26 08:06:35;;;;;;;9.43;4.50;;;;;;;18.54;79.10;101477.41;5029870;28;20033;-65
2022/06/26 08:09:01;;;;;;;7.22;3.53;;;;;;;18.63;79.82;101486.81;5029738;28;20087;-65
2022/06/26 08:11:26;;;;;;;11.45;4.85;;;;;;;18.76;81.39;101483.09;5029836;28;20780;-65
2022/06/26 08:13:52;;;;;;;8.18;4.90;;;;;;;18.77;80.52;101492.84;5029606;28;20542;-65
2022/06/26 08:16:17;;;;;;;6.50;4.22;;;;;;;18.70;80.08;101501.03;5029677;28;20043;-65
2022/06/26 08:18:43;;;;;;;9.10;5.20;;;;;;;18.69;82.51;101493.97;5029312;28;20380;-65
2022/06/26 08:23:53;;;;;;;7.57;3.78;;;;;;;18.69;80.11;101495.88;5029826;28;20041;-65
2022/06/26 08:26:18;;;;;;;9.38;4.95;;;;;;;18.66;81.42;101496.34;5029582;28;20029;-65
2022/06/26 08:28:44;;;;;;;11.07;4.95;;;;;;;18.62;80.39;101501.38;5029189;28;20043;-65
2022/06/26 08:31:09;;;;;;;7.00;3.92;;;;;;;18.53;78.68;101506.31;5029527;28;20033;-65
2022/06/26 08:33:35;;;;;;;7.50;4.20;;;;;;;18.48;79.39;101508.06;5029460;28;20060;-65
2022/06/26 08:36:00;;;;;;;8.25;3.88;;;;;;;18.44;79.79;101504.19;5029434;28;20029;-66
2022/06/26 08:38:26;;;;;;;8.48;3.88;;;;;;;18.47;79.24;101499.16;5029251;28;20117;-65
2022/06/26 08:40:51;;;;;;;8.15;4.53;;;;;;;18.54;79.22;101496.31;5028831;28;20038;-65
2022/06/26 08:43:21;;;;;;;6.00;4.00;;;;;;;18.59;77.69;101493.75;5028768;28;20041;-65
2022/06/26 08:45:49;;;;;;;9.95;4.35;;;;;;;18.58;77.44;101500.22;5028572;28;20044;-65
2022/06/26 08:48:15;;;;;;;7.28;4.20;;;;;;;18.53;78.21;101502.78;5029208;28;20052;-65
2022/06/26 08:50:43;;;;;;;9.65;5.10;;;;;;;18.51;78.55;101494.91;5029297;28;20473;-65
2022/06/26 08:53:09;;;;;;;6.13;4.40;;;;;;;18.60;78.11;101503.47;5029063;28;20041;-65
2022/06/26 08:55:35;;;;;;;5.75;4.00;;;;;;;18.70;78.78;101516.41;5029118;28;20025;-65
2022/06/26 08:58:01;;;;;;;6.00;3.75;;;;;;;18.76;79.52;101512.84;5029118;28;20044;-66
2022/06/26 09:00:26;;;;;;;8.18;3.97;;;;;;;18.72;77.21;101517.00;5028757;28;20496;-65
2022/06/26 09:02:52;;;;;;;7.55;4.47;;;;;;;18.65;77.88;101514.41;5029214;28;20049;-65
2022/06/26 09:05:17;;;;;;;9.60;3.88;;;;;;;18.66;77.42;101521.47;5030391;28;20039;-65
2022/06/26 09:07:52;;;;;;;9.07;3.63;;;;;;;18.65;78.75;101516.28;5033296;28;20036;-65
2022/06/26 09:10:18;;;;;;;8.35;4.38;;;;;;;18.67;80.70;101519.59;5033134;28;20076;-65
2022/06/26 09:12:53;;;;;;;4.70;3.58;;;;;;;18.70;79.03;101514.53;5031654;28;20045;-65
2022/06/26 09:15:21;;;;;;;7.40;5.15;;;;;;;18.71;76.60;101510.78;5031086;28;20500;-65
2022/06/26 09:18:16;;;;;;;6.18;3.95;;;;;;;18.67;78.09;101506.91;5026304;28;20121;-67
2022/06/26 09:20:54;;;;;;;8.70;5.07;;;;;;;18.70;79.53;101509.13;5018635;28;20037;-67
2022/06/26 09:23:20;;;;;;;7.18;3.95;;;;;;;18.69;77.20;101503.97;5028969;28;20029;-67
2022/06/26 09:25:45;;;;;;;6.63;4.05;;;;;;;18.63;77.02;101511.16;5010309;28;20033;-67
2022/06/26 09:28:17;;;;;;;7.28;4.15;;;;;;;18.57;77.29;101515.59;5028242;28;21134;-66
2022/06/26 09:30:55;;;;;;;11.15;4.80;;;;;;;18.58;78.21;101511.03;5026971;28;20033;-67
2022/06/26 09:33:33;;;;;;;7.50;4.07;;;;;;;18.57;78.28;101504.78;5028451;28;20033;-66
2022/06/26 09:36:00;;;;;;;63.60;11.05;;;;;;;18.61;80.90;101503.25;5028181;28;20021;-67
2022/06/26 09:38:36;;;;;;;9.02;3.78;;;;;;;18.62;79.50;101504.91;5027807;28;20041;-66
2022/06/26 09:41:05;;;;;;;8.85;4.75;;;;;;;18.64;77.66;101503.84;5028545;28;20501;-67
2022/06/26 09:43:43;;;;;;;6.65;4.82;;;;;;;18.64;78.75;101512.78;5027997;28;20055;-67
2022/06/26 09:46:11;;;;;;;8.10;4.50;;;;;;;18.65;78.38;101516.28;5028171;28;20191;-67
2022/06/26 09:48:38;;;;;;;7.63;4.72;;;;;;;18.68;78.32;101530.19;5027763;28;20028;-66
2022/06/26 09:51:05;;;;;;;9.18;4.30;;;;;;;18.68;77.84;101523.94;5028221;28;20045;-66
2022/06/26 09:53:31;;;;;;;10.85;4.32;;;;;;;18.68;79.64;101535.59;5027651;28;20480;-67
2022/06/26 09:55:59;;;;;;;7.75;4.32;;;;;;;18.68;78.58;101524.78;5028247;28;20033;-66
2022/06/26 09:58:25;;;;;;;9.35;5.07;;;;;;;18.61;79.54;101514.06;5027204;28;20025;-68
2022/06/26 10:06:27;;;;;;;9.52;4.78;;;;;;;18.74;80.13;101534.63;5027984;28;20044;-66
2022/06/26 10:09:07;;;;;;;7.32;4.72;;;;;;;18.76;80.94;101540.66;5027219;28;20022;-66
2022/06/26 10:11:34;;;;;;;9.68;2.95;;;;;;;18.68;79.37;101532.88;5028023;28;20021;-66
2022/06/26 10:14:18;;;;;;;5.90;2.80;;;;;;;18.73;77.20;101548.38;5027825;28;20036;-67
2022/06/26 10:16:50;;;;;;;8.27;3.53;;;;;;;18.79;77.01;101542.91;5026620;28;20040;-67
2022/06/26 10:19:38;;;;;;;4.93;3.15;;;;;;;18.81;78.13;101546.19;5027527;28;20036;-67
2022/06/26 10:22:04;;;;;;;6.45;3.90;;;;;;;18.89;79.13;101542.31;5027049;28;20031;-67
2022/06/26 10:24:29;;;;;;;4.70;3.08;;;;;;;18.97;76.75;101554.66;5025810;28;20029;-66
2022/06/26 10:26:57;;;;;;;4.57;2.95;;;;;;;19.04;73.84;101558.06;5027694;28;20144;-65
2022/06/26 10:29:37;;;;;;;6.68;3.13;;;;;;;19.08;75.49;101561.94;5027520;28;20081;-67
2022/06/26 10:32:03;;;;;;;3.10;2.80;;;;;;;19.10;74.28;101556.28;5027314;28;20018;-66
2022/06/26 10:34:29;;;;;;;5.32;3.15;;;;;;;19.17;75.24;101563.22;5027333;28;20044;-66
2022/06/26 10:37:10;;;;;;;7.53;4.95;;;;;;;19.19;74.31;101558.41;5027244;28;20033;-67
2022/06/26 10:39:36;;;;;;;5.05;3.70;;;;;;;19.22;73.87;101546.28;5027359;28;20061;-67
2022/06/26 10:45:29;;;;;;;7.95;3.83;;;;;;;19.21;75.67;101561.69;5003629;28;20068;-66
2022/06/26 10:47:57;;;;;;;3.50;3.20;;;;;;;19.27;75.42;101566.16;5030064;28;20056;-66
2022/06/26 10:50:27;;;;;;;6.07;3.83;;;;;;;19.23;75.51;101570.41;5031223;28;20037;-66
2022/06/26 10:53:12;;;;;;;4.45;3.53;;;;;;;19.21;73.74;101561.69;5030853;28;20060;-66
2022/06/26 10:55:39;;;;;;;6.40;3.60;;;;;;;19.26;72.81;101556.41;5031209;28;20029;-66
2022/06/26 10:58:04;;;;;;;5.28;4.05;;;;;;;19.36;73.57;101563.91;5029863;28;20936;-66
2022/06/26 11:00:30;;;;;;;7.32;4.13;;;;;;;19.45;74.25;101562.47;5031044;28;20025;-66
2022/06/26 11:02:55;;;;;;;7.57;5.40;;;;;;;19.42;73.98;101557.53;5029492;28;20033;-66
2022/06/26 11:05:20;;;;;;;8.00;4.72;;;;;;;19.41;74.15;101564.03;5030957;28;20389;-66
2022/06/26 11:07:53;;;;;;;6.90;4.10;;;;;;;19.45;72.06;101562.47;5031020;28;20037;-66
2022/06/26 11:10:21;;;;;;;5.63;3.40;;;;;;;19.45;70.84;101556.25;5031022;28;20036;-66
2022/06/26 11:12:51;;;;;;;4.97;2.92;;;;;;;19.52;70.38;101562.34;5030693;28;20033;-66
2022/06/26 11:15:27;;;;;;;6.93;3.42;;;;;;;19.61;71.69;101566.31;5030734;28;20488;-66
2022/06/26 11:17:55;;;;;;;5.53;3.70;;;;;;;19.61;72.34;101563.63;5030498;28;20477;-66
2022/06/26 11:23:25;;;;;;;8.82;4.00;;;;;;;19.55;72.55;101548.34;5030754;28;20103;-67
2022/06/26 11:26:14;;;;;;;5.35;2.20;;;;;;;19.45;71.15;101543.53;5030422;28;20033;-66
2022/06/26 11:28:42;;;;;;;3.03;2.42;;;;;;;19.43;69.78;101537.53;5029438;28;20035;-66
2022/06/26 11:31:18;;;;;;;8.05;3.00;;;;;;;19.58;69.83;101533.50;5028677;28;20025;-66